Time;durP1;ratioP1;P1;durP2;ratioP2;P2;SDS_P1;SDS_P2;PMS_P1;PMS_P2;Temp;Humidity;BMP_temperature;BMP_pressure;BME280_temperature;BME280_humidity;BME280_pressure;Samples;Min_cycle;Max_cycle;Signal;HPM_P1;HPM_P2
2023/03/16 00:00:32;;;;;;;;;;;;;;;2.88;96.82;96492.22;5098809;28;20028;-84
2023/03/16 00:02:59;;;;;;;;;;;;;;;2.93;96.70;96496.00;5106575;27;19970;-84
2023/03/16 00:05:26;;;;;;;;;;;;;;;2.91;95.09;96490.00;5092058;28;19935;-84
2023/03/16 00:07:55;;;;;;;;;;;;;;;2.92;94.65;96490.84;5104241;28;19924;-85
2023/03/16 00:10:26;;;;;;;;;;;;;;;2.87;94.39;96487.91;5104696;28;19928;-85
2023/03/16 00:12:54;;;;;;;;;;;;;;;2.80;93.93;96493.13;5093460;28;19928;-84
2023/03/16 00:15:21;;;;;;;;;;;;;;;2.72;94.59;96477.19;5094135;28;19923;-84
2023/03/16 00:17:48;;;;;;;;;;;;;;;2.67;94.86;96480.38;5102398;28;19931;-84
2023/03/16 00:20:15;;;;;;;;;;;;;;;2.68;95.20;96475.88;5099426;28;19930;-85
2023/03/16 00:22:42;;;;;;;;;;;;;;;2.74;95.10;96469.81;5100662;28;19932;-85
2023/03/16 00:25:09;;;;;;;;;;;;;;;2.74;94.75;96472.47;5099724;28;19928;-84
2023/03/16 00:27:36;;;;;;;;;;;;;;;2.77;94.58;96471.31;5103798;28;19924;-85
2023/03/16 00:30:05;;;;;;;;;;;;;;;2.76;94.80;96473.13;5097846;28;19928;-85
2023/03/16 00:32:32;;;;;;;;;;;;;;;2.71;93.83;96475.53;5108750;28;19924;-84
2023/03/16 00:35:00;;;;;;;;;;;;;;;2.64;93.21;96466.56;5099417;28;19930;-84
2023/03/16 00:37:27;;;;;;;;;;;;;;;2.66;93.02;96465.38;5103806;28;20014;-84
2023/03/16 00:39:55;;;;;;;;;;;;;;;2.70;93.00;96463.19;5109753;28;19919;-84
2023/03/16 00:42:26;;;;;;;;;;;;;;;2.71;92.45;96459.53;5104132;28;20005;-85
2023/03/16 00:44:56;;;;;;;;;;;;;;;2.77;90.28;96460.63;5101636;28;19927;-84
2023/03/16 00:47:25;;;;;;;;;;;;;;;2.79;89.21;96456.78;5095681;28;19956;-84
2023/03/16 00:49:51;;;;;;;;;;;;;;;2.79;88.91;96453.28;5095250;28;19964;-84
2023/03/16 00:52:18;;;;;;;;;;;;;;;2.76;89.07;96457.13;5101254;28;19926;-85
2023/03/16 00:54:46;;;;;;;;;;;;;;;2.77;90.17;96457.97;5101418;28;19930;-84
2023/03/16 00:57:15;;;;;;;;;;;;;;;2.77;89.96;96458.81;5098833;28;19961;-84
2023/03/16 00:59:42;;;;;;;;;;;;;;;2.79;90.30;96456.78;5094707;28;19949;-84
2023/03/16 01:02:09;;;;;;;;;;;;;;;2.80;89.63;96457.63;5093692;28;19919;-84
2023/03/16 01:04:38;;;;;;;;;;;;;;;2.83;89.23;96452.75;5105737;28;20002;-85
2023/03/16 01:07:06;;;;;;;;;;;;;;;2.83;90.58;96447.41;5101178;28;19926;-84
2023/03/16 01:09:35;;;;;;;;;;;;;;;2.83;91.31;96452.75;5095615;28;19927;-85
2023/03/16 01:12:03;;;;;;;;;;;;;;;2.84;92.57;96443.75;5100837;28;19928;-85
2023/03/16 01:14:29;;;;;;;;;;;;;;;2.81;93.50;96444.09;5107595;28;19977;-85
2023/03/16 01:16:56;;;;;;;;;;;;;;;2.81;93.80;96438.75;5113688;28;19920;-85
2023/03/16 01:19:23;;;;;;;;;;;;;;;2.81;94.16;96441.41;5106508;28;19920;-85
2023/03/16 01:21:52;;;;;;;;;;;;;;;2.80;94.31;96434.44;5098304;28;19920;-85
2023/03/16 01:24:19;;;;;;;;;;;;;;;2.77;95.46;96429.47;5098788;28;19919;-84
2023/03/16 01:26:46;;;;;;;;;;;;;;;2.67;96.74;96431.53;5107812;28;19962;-84
2023/03/16 01:29:13;;;;;;;;;;;;;;;2.50;96.59;96430.03;5097745;28;19969;-85
2023/03/16 01:31:40;;;;;;;;;;;;;;;2.46;96.49;96420.75;5094754;28;20022;-84
2023/03/16 01:34:11;;;;;;;;;;;;;;;2.45;95.63;96422.56;5101051;28;19958;-84
2023/03/16 01:36:38;;;;;;;;;;;;;;;2.46;93.84;96423.41;5098229;28;19920;-84
2023/03/16 01:39:08;;;;;;;;;;;;;;;2.49;93.12;96423.84;5105127;28;19982;-85
2023/03/16 01:41:39;;;;;;;;;;;;;;;2.54;92.81;96420.69;5110989;28;19919;-84
2023/03/16 01:44:07;;;;;;;;;;;;;;;2.54;92.70;96420.69;5093583;28;19950;-85
2023/03/16 01:46:34;;;;;;;;;;;;;;;2.56;92.19;96418.63;5104204;28;19923;-84
2023/03/16 01:49:05;;;;;;;;;;;;;;;2.56;93.65;96418.63;5097416;28;19920;-85
2023/03/16 01:51:35;;;;;;;;;;;;;;;2.53;93.41;96413.69;5094171;28;19924;-84
2023/03/16 01:54:04;;;;;;;;;;;;;;;2.58;93.41;96419.28;5098002;28;19920;-84
2023/03/16 01:56:34;;;;;;;;;;;;;;;2.59;93.95;96418.28;5092683;28;19920;-85
2023/03/16 01:59:02;;;;;;;;;;;;;;;2.60;94.49;96415.44;5093860;28;19923;-84
2023/03/16 02:01:29;;;;;;;;;;;;;;;2.58;95.17;96413.97;5105930;28;19927;-84
2023/03/16 02:04:02;;;;;;;;;;;;;;;2.54;94.98;96418.00;5094305;28;19928;-85
2023/03/16 02:06:31;;;;;;;;;;;;;;;2.48;95.63;96413.38;5092691;28;19920;-84
2023/03/16 02:08:58;;;;;;;;;;;;;;;2.41;95.86;96407.94;5106056;28;20010;-84
2023/03/16 02:11:25;;;;;;;;;;;;;;;2.37;96.27;96403.97;5107439;28;19934;-84
2023/03/16 02:14:06;;;;;;;;;;;;;;;2.37;96.41;96405.81;5099065;28;19919;-84
2023/03/16 02:16:33;;;;;;;;;;;;;;;2.39;97.26;96401.09;5104705;28;20020;-84
2023/03/16 02:19:00;;;;;;;;;;;;;;;2.40;97.65;96402.78;5094786;28;19928;-84
2023/03/16 02:21:32;;;;;;;;;;;;;;;2.38;97.68;96400.31;5099309;28;19928;-84
2023/03/16 02:24:01;;;;;;;;;;;;;;;2.36;97.24;96399.66;5107015;28;19924;-85
2023/03/16 02:26:34;;;;;;;;;;;;;;;2.34;97.04;96400.81;5101687;28;19992;-85
2023/03/16 02:29:10;;;;;;;;;;;;;;;2.31;97.25;96398.50;5101564;28;19923;-84
2023/03/16 02:31:39;;;;;;;;;;;;;;;2.28;98.70;96399.72;5096827;28;19920;-84
2023/03/16 02:34:06;;;;;;;;;;;;;;;2.23;98.66;96397.56;5101305;28;19926;-84
2023/03/16 02:36:34;;;;;;;;;;;;;;;2.21;99.96;96398.78;5101372;28;19920;-84
2023/03/16 02:39:01;;;;;;;;;;;;;;;2.21;99.94;96396.91;5095321;28;19966;-84
2023/03/16 02:41:31;;;;;;;;;;;;;;;2.15;100.00;96402.94;5091480;28;20241;-84
2023/03/16 02:44:01;;;;;;;;;;;;;;;2.11;100.00;96407.00;5095100;28;19920;-84
2023/03/16 02:46:34;;;;;;;;;;;;;;;2.12;100.00;96400.66;5097598;28;19927;-84
2023/03/16 02:49:05;;;;;;;;;;;;;;;2.07;100.00;96402.16;5104766;28;19926;-84
2023/03/16 02:51:32;;;;;;;;;;;;;;;2.03;100.00;96407.03;5102472;28;19919;-84
2023/03/16 02:53:59;;;;;;;;;;;;;;;2.03;100.00;96407.03;5095374;28;20150;-84
2023/03/16 02:56:28;;;;;;;;;;;;;;;1.97;100.00;96407.72;5092139;28;19972;-84
2023/03/16 02:58:56;;;;;;;;;;;;;;;1.80;100.00;96408.81;5099650;28;19924;-84
2023/03/16 03:01:24;;;;;;;;;;;;;;;1.75;100.00;96406.69;5097520;28;19920;-84
2023/03/16 03:03:51;;;;;;;;;;;;;;;1.69;100.00;96406.56;5092116;28;20011;-84
2023/03/16 03:06:19;;;;;;;;;;;;;;;1.63;100.00;96401.91;5095233;28;19974;-84
2023/03/16 03:08:45;;;;;;;;;;;;;;;1.57;100.00;96405.28;5102546;28;19924;-84
2023/03/16 03:11:13;;;;;;;;;;;;;;;1.49;100.00;96400.81;5106874;28;19926;-84
2023/03/16 03:13:43;;;;;;;;;;;;;;;1.47;100.00;96405.47;5099472;28;19927;-84
2023/03/16 03:16:14;;;;;;;;;;;;;;;1.48;100.00;96402.66;5096024;28;19927;-84
2023/03/16 03:18:41;;;;;;;;;;;;;;;1.55;100.00;96389.47;5097889;28;19927;-84
2023/03/16 03:21:08;;;;;;;;;;;;;;;1.58;100.00;96399.78;5093733;28;19923;-84
2023/03/16 03:23:36;;;;;;;;;;;;;;;1.61;100.00;96396.78;5093192;27;19955;-84
2023/03/16 03:26:03;;;;;;;;;;;;;;;1.73;100.00;96390.06;5095631;28;19920;-84
2023/03/16 03:28:33;;;;;;;;;;;;;;;1.79;100.00;96394.66;5093688;28;19930;-85
2023/03/16 03:31:00;;;;;;;;;;;;;;;1.75;100.00;96398.69;5098812;28;19920;-85
2023/03/16 03:33:26;;;;;;;;;;;;;;;1.75;100.00;96404.03;5103076;28;19924;-84
2023/03/16 03:35:54;;;;;;;;;;;;;;;1.61;100.00;96404.78;5096981;28;19919;-84
2023/03/16 03:38:21;;;;;;;;;;;;;;;1.55;100.00;96404.59;5102925;28;19927;-85
2023/03/16 03:40:51;;;;;;;;;;;;;;;1.56;100.00;96415.09;5108829;28;19927;-85
2023/03/16 03:43:18;;;;;;;;;;;;;;;1.52;100.00;96416.44;5095722;28;19941;-84
2023/03/16 03:45:45;;;;;;;;;;;;;;;1.52;100.00;96417.28;5099514;28;19920;-84
2023/03/16 03:48:13;;;;;;;;;;;;;;;1.49;100.00;96409.63;5105964;28;19970;-84
2023/03/16 03:50:40;;;;;;;;;;;;;;;1.45;100.00;96410.13;5108410;28;19998;-84
2023/03/16 03:53:38;;;;;;;;;;;;;;;1.37;100.00;96408.34;5065517;28;19920;-84
2023/03/16 03:56:36;;;;;;;;;;;;;;;1.28;100.00;96405.88;5086901;28;19924;-84
2023/03/16 03:59:09;;;;;;;;;;;;;;;1.27;100.00;96405.06;5104906;28;19920;-85
2023/03/16 04:02:00;;;;;;;;;;;;;;;1.34;100.00;96411.34;5063258;28;19927;-84
2023/03/16 04:04:39;;;;;;;;;;;;;;;1.34;100.00;96405.19;5095539;28;20406;-84
2023/03/16 04:07:06;;;;;;;;;;;;;;;1.31;100.00;96411.69;5106678;28;19950;-84
2023/03/16 04:09:33;;;;;;;;;;;;;;;1.25;100.00;96404.41;5102490;28;19928;-84
2023/03/16 04:12:02;;;;;;;;;;;;;;;1.21;100.00;96402.25;5103563;28;19966;-85
2023/03/16 04:14:29;;;;;;;;;;;;;;;1.19;100.00;96401.59;5091056;28;20023;-84
2023/03/16 04:16:56;;;;;;;;;;;;;;;1.19;100.00;96407.75;5098152;28;20034;-85
2023/03/16 04:19:23;;;;;;;;;;;;;;;1.17;100.00;96401.78;5106034;28;19928;-84
2023/03/16 04:21:51;;;;;;;;;;;;;;;1.14;100.00;96400.28;5100401;28;19925;-84
2023/03/16 04:24:21;;;;;;;;;;;;;;;1.14;100.00;96396.78;5097762;28;19930;-85
2023/03/16 04:26:48;;;;;;;;;;;;;;;1.13;100.00;96397.78;5091774;28;19924;-84
2023/03/16 04:29:17;;;;;;;;;;;;;;;1.10;100.00;96393.66;5094379;28;19989;-84
2023/03/16 04:31:44;;;;;;;;;;;;;;;1.09;100.00;96388.50;5098271;28;20026;-84
2023/03/16 04:34:13;;;;;;;;;;;;;;;1.11;100.00;96386.47;5095543;28;19924;-84
2023/03/16 04:36:40;;;;;;;;;;;;;;;1.11;100.00;96383.81;5102495;28;19924;-84
2023/03/16 04:39:07;;;;;;;;;;;;;;;1.02;100.00;96387.53;5094260;28;19972;-84
2023/03/16 04:41:36;;;;;;;;;;;;;;;0.93;100.00;96377.91;5089403;28;19924;-84
2023/03/16 04:44:12;;;;;;;;;;;;;;;0.82;100.00;96368.44;5106034;28;19931;-84
2023/03/16 04:46:41;;;;;;;;;;;;;;;0.79;100.00;96362.63;5092965;28;19931;-84
2023/03/16 04:49:09;;;;;;;;;;;;;;;0.79;100.00;96362.63;5094561;28;19959;-84
2023/03/16 04:51:39;;;;;;;;;;;;;;;0.79;100.00;96346.69;5091290;28;20392;-84
2023/03/16 04:54:12;;;;;;;;;;;;;;;0.79;100.00;96347.50;5096485;28;19924;-84
2023/03/16 04:56:43;;;;;;;;;;;;;;;0.83;100.00;96356.00;5102350;28;19924;-84
2023/03/16 04:59:19;;;;;;;;;;;;;;;0.91;100.00;96351.47;5111278;28;19943;-84
2023/03/16 05:01:53;;;;;;;;;;;;;;;0.96;100.00;96358.94;5102925;28;19923;-84
2023/03/16 05:04:23;;;;;;;;;;;;;;;1.02;100.00;96342.31;5096119;28;19923;-84
2023/03/16 05:06:50;;;;;;;;;;;;;;;1.02;100.00;96342.31;5102284;28;20034;-84
2023/03/16 05:09:21;;;;;;;;;;;;;;;1.04;100.00;96341.13;5098706;28;20022;-84
2023/03/16 05:11:51;;;;;;;;;;;;;;;1.07;100.00;96337.31;5101849;28;19925;-84
2023/03/16 05:14:18;;;;;;;;;;;;;;;1.09;100.00;96344.13;5094820;28;19924;-84
2023/03/16 05:17:03;;;;;;;;;;;;;;;1.15;100.00;96331.97;5097094;28;19936;-84
2023/03/16 05:19:30;;;;;;;;;;;;;;;1.14;100.00;96335.63;5095924;28;19946;-84
2023/03/16 05:21:57;;;;;;;;;;;;;;;1.12;100.00;96326.97;5100716;28;19927;-84
2023/03/16 05:24:24;;;;;;;;;;;;;;;1.13;100.00;96320.66;5099980;28;19924;-84
2023/03/16 05:26:51;;;;;;;;;;;;;;;1.12;100.00;96324.31;5094593;28;19924;-84
2023/03/16 05:29:20;;;;;;;;;;;;;;;1.18;100.00;96323.66;5097544;28;19923;-85
2023/03/16 05:31:47;;;;;;;;;;;;;;;1.26;100.00;96320.94;5098899;28;19924;-84
2023/03/16 05:34:18;;;;;;;;;;;;;;;1.37;100.00;96322.38;5100512;28;19932;-85
2023/03/16 05:36:45;;;;;;;;;;;;;;;1.39;100.00;96323.03;5104109;28;19954;-84
2023/03/16 05:39:15;;;;;;;;;;;;;;;1.41;100.00;96323.69;5108764;28;19924;-84
2023/03/16 05:41:46;;;;;;;;;;;;;;;1.47;98.87;96315.84;5094531;28;20108;-84
2023/03/16 05:44:45;;;;;;;;;;;;;;;1.59;99.26;96328.75;5087455;28;19924;-84
2023/03/16 05:47:19;;;;;;;;;;;;;;;1.64;97.41;96321.91;5110308;28;20023;-85
2023/03/16 05:49:52;;;;;;;;;;;;;;;1.64;97.78;96323.72;5101832;28;20022;-84
2023/03/16 05:52:29;;;;;;;;;;;;;;;1.64;97.67;96321.91;5101902;28;19977;-84
2023/03/16 05:54:58;;;;;;;;;;;;;;;1.64;97.99;96321.06;5100697;28;19928;-84
2023/03/16 05:57:25;;;;;;;;;;;;;;;1.66;98.68;96319.06;5105075;28;19931;-84
2023/03/16 05:59:52;;;;;;;;;;;;;;;1.65;99.04;96320.06;5093135;28;19951;-85
2023/03/16 06:02:20;;;;;;;;;;;;;;;1.61;99.50;96316.94;5107138;28;19923;-84
2023/03/16 06:04:47;;;;;;;;;;;;;;;1.55;100.00;96314.13;5098226;28;19924;-85
2023/03/16 06:07:16;;;;;;;;;;;;;;;1.45;100.00;96309.03;5104439;28;19924;-84
2023/03/16 06:09:43;;;;;;;;;;;;;;;1.44;100.00;96312.72;5095710;28;19954;-85
2023/03/16 06:12:14;;;;;;;;;;;;;;;1.43;100.00;96314.53;5102043;28;21207;-85
2023/03/16 06:14:42;;;;;;;;;;;;;;;1.37;100.00;96309.06;5103248;28;19954;-84
2023/03/16 06:17:09;;;;;;;;;;;;;;;1.34;100.00;96315.59;5094854;28;19924;-85
2023/03/16 06:19:36;;;;;;;;;;;;;;;1.32;100.00;96312.25;5102702;28;19963;-85
2023/03/16 06:22:03;;;;;;;;;;;;;;;1.32;100.00;96317.59;5100534;28;20027;-85
2023/03/16 06:24:31;;;;;;;;;;;;;;;1.30;100.00;96316.94;5100064;28;20023;-85
2023/03/16 06:26:58;;;;;;;;;;;;;;;1.24;100.00;96320.28;5095203;28;19924;-85
2023/03/16 06:29:32;;;;;;;;;;;;;;;1.24;100.00;96314.13;5096338;28;20030;-84
2023/03/16 06:32:00;;;;;;;;;;;;;;;1.20;100.00;96318.97;5093689;28;19934;-85
2023/03/16 06:34:27;;;;;;;;;;;;;;;1.22;100.00;96321.44;5098443;28;19930;-84
2023/03/16 06:36:55;;;;;;;;;;;;;;;1.24;100.00;96319.44;5103607;28;19927;-85
2023/03/16 06:39:22;;;;;;;;;;;;;;;1.22;100.00;96327.59;5109320;28;20018;-84
2023/03/16 06:41:52;;;;;;;;;;;;;;;1.21;100.00;96331.25;5093187;28;19924;-84
2023/03/16 06:44:20;;;;;;;;;;;;;;;1.19;100.00;96335.94;5097042;28;19924;-84
2023/03/16 06:46:56;;;;;;;;;;;;;;;1.15;100.00;96331.97;5093224;28;20018;-84
2023/03/16 06:49:23;;;;;;;;;;;;;;;1.01;100.00;96348.63;5094185;28;19928;-83
2023/03/16 06:51:50;;;;;;;;;;;;;;;1.12;100.00;96348.25;5100757;28;19963;-83
2023/03/16 06:54:19;;;;;;;;;;;;;;;1.11;100.00;96351.91;5103040;28;19962;-83
2023/03/16 06:56:46;;;;;;;;;;;;;;;1.11;100.00;96363.38;5098679;28;19928;-83
2023/03/16 06:59:14;;;;;;;;;;;;;;;1.10;100.00;96360.91;5097519;28;19969;-83
2023/03/16 07:01:41;;;;;;;;;;;;;;;0.96;100.00;96365.09;5092165;28;19932;-83
2023/03/16 07:04:08;;;;;;;;;;;;;;;0.98;100.00;96363.09;5098803;28;19971;-83
2023/03/16 07:06:35;;;;;;;;;;;;;;;1.01;100.00;96362.75;5092065;28;19927;-83
2023/03/16 07:09:03;;;;;;;;;;;;;;;1.05;100.00;96371.22;5109165;28;19924;-83
2023/03/16 07:11:31;;;;;;;;;;;;;;;1.13;100.00;96371.19;5096353;28;19924;-83
2023/03/16 07:13:58;;;;;;;;;;;;;;;1.17;100.00;96367.19;5100328;28;20011;-83
2023/03/16 07:16:27;;;;;;;;;;;;;;;1.16;100.00;96375.34;5090533;28;19928;-83
2023/03/16 07:18:57;;;;;;;;;;;;;;;1.17;100.00;96375.16;5100593;28;19939;-83
2023/03/16 07:21:25;;;;;;;;;;;;;;;1.20;100.00;96381.97;5093351;28;19945;-83
2023/03/16 07:23:51;;;;;;;;;;;;;;;1.19;100.00;96385.66;5097742;28;19924;-83
2023/03/16 07:30:15;;;;;;;;;;;;;;;1.22;100.00;96399.41;5111278;27;19967;-84
2023/03/16 07:32:45;;;;;;;;;;;;;;;1.23;100.00;96405.56;5100739;28;20027;-84
2023/03/16 07:35:12;;;;;;;;;;;;;;;1.26;100.00;96406.06;5095417;28;19936;-84
2023/03/16 07:37:39;;;;;;;;;;;;;;;1.27;100.00;96410.38;5109016;28;19947;-84
2023/03/16 07:40:08;;;;;;;;;;;;;;;1.31;100.00;96410.84;5100502;28;19924;-84
2023/03/16 07:42:35;;;;;;;;;;;;;;;1.27;100.00;96410.38;5088503;28;19935;-84
2023/03/16 07:45:11;;;;;;;;;;;;;;;1.30;100.00;96423.31;5088862;28;19924;-85
2023/03/16 07:47:39;;;;;;;;;;;;;;;1.33;100.00;96422.16;5088468;28;19931;-84
2023/03/16 07:50:15;;;;;;;;;;;;;;;1.25;100.00;96430.16;5096877;28;19924;-84
2023/03/16 07:52:45;;;;;;;;;;;;;;;1.28;100.00;96430.63;5092545;28;19928;-84
2023/03/16 07:55:12;;;;;;;;;;;;;;;1.33;100.00;96428.31;5101834;28;20027;-84
2023/03/16 07:57:41;;;;;;;;;;;;;;;1.41;100.00;96441.59;5094064;28;19946;-84
2023/03/16 08:00:09;;;;;;;;;;;;;;;1.49;100.00;96430.09;5100886;28;19928;-84
2023/03/16 08:02:45;;;;;;;;;;;;;;;1.53;100.00;96424.22;5091091;28;19925;-84
2023/03/16 08:05:14;;;;;;;;;;;;;;;1.58;100.00;96429.06;5097939;28;19928;-84
2023/03/16 08:07:45;;;;;;;;;;;;;;;1.61;100.00;96434.03;5096738;28;19930;-84
2023/03/16 08:10:15;;;;;;;;;;;;;;;1.57;100.00;96437.22;5088867;28;19955;-84
2023/03/16 08:12:54;;;;;;;;;;;;;;;1.59;100.00;96430.72;5107846;28;19973;-84
2023/03/16 08:15:21;;;;;;;;;;;;;;;1.51;100.00;96428.09;5080249;28;19951;-84
2023/03/16 08:17:52;;;;;;;;;;;;;;;1.51;100.00;96434.25;5079502;28;19924;-84
2023/03/16 08:20:23;;;;;;;;;;;;;;;1.52;100.00;96425.25;5093955;28;19939;-84
2023/03/16 08:22:50;;;;;;;;;;;;;;;1.58;100.00;96421.06;5080995;28;19938;-84
2023/03/16 08:25:21;;;;;;;;;;;;;;;1.62;100.00;96421.53;5079073;28;19932;-85
2023/03/16 08:27:58;;;;;;;;;;;;;;;1.68;100.00;96412.88;5078290;28;19932;-84
2023/03/16 08:30:25;;;;;;;;;;;;;;;1.76;100.00;96402.19;5083322;28;20002;-85
2023/03/16 08:33:10;;;;;;;;;;;;;;;1.89;100.00;96389.97;5084295;28;19924;-84
2023/03/16 08:35:37;;;;;;;;;;;;;;;2.15;100.00;96383.47;5084814;28;19928;-85
2023/03/16 08:38:05;;;;;;;;;;;;;;;2.44;98.11;96382.78;5085856;28;19924;-85
2023/03/16 08:40:33;;;;;;;;;;;;;;;2.67;97.94;96372.91;5074681;28;19932;-85
2023/03/16 08:43:01;;;;;;;;;;;;;;;2.92;95.23;96371.66;5068926;28;19931;-85
2023/03/16 08:45:28;;;;;;;;;;;;;;;3.31;91.23;96360.75;5069571;28;19960;-85
2023/03/16 08:47:55;;;;;;;;;;;;;;;3.45;90.90;96351.06;5059996;28;19992;-85
2023/03/16 08:50:23;;;;;;;;;;;;;;;3.69;87.11;96337.38;5082588;28;19939;-84
2023/03/16 08:52:50;;;;;;;;;;;;;;;3.92;80.54;96342.56;5082160;28;20011;-85
2023/03/16 08:55:17;;;;;;;;;;;;;;;4.14;80.47;96333.56;5067721;28;19936;-85
2023/03/16 08:57:45;;;;;;;;;;;;;;;4.44;78.41;96336.09;5063885;28;19935;-85
2023/03/16 09:00:13;;;;;;;;;;;;;;;4.68;73.81;96330.31;5073493;28;19929;-85
2023/03/16 09:02:40;;;;;;;;;;;;;;;4.97;70.77;96323.94;5072031;28;19995;-85
2023/03/16 09:05:08;;;;;;;;;;;;;;;5.16;67.55;96304.53;5068764;28;20003;-85
2023/03/16 09:07:38;;;;;;;;;;;;;;;5.38;67.12;96297.22;5063387;28;19928;-85
2023/03/16 09:10:06;;;;;;;;;;;;;;;5.65;65.90;96292.78;5058637;28;19936;-84
2023/03/16 09:12:34;;;;;;;;;;;;;;;5.90;64.64;96307.31;5081766;28;19972;-85
2023/03/16 09:15:01;;;;;;;;;;;;;;;6.12;62.91;96293.78;5056079;28;20047;-85
2023/03/16 09:17:28;;;;;;;;;;;;;;;6.25;62.02;96294.63;5070709;28;19947;-85
2023/03/16 09:19:56;;;;;;;;;;;;;;;6.45;60.47;96287.41;5069772;28;19932;-82
2023/03/16 09:22:23;;;;;;;;;;;;;;;6.59;59.91;96276.69;5068507;28;19928;-84
2023/03/16 09:24:51;;;;;;;;;;;;;;;6.66;56.34;96275.63;5066930;28;19932;-85
2023/03/16 09:27:19;;;;;;;;;;;;;;;6.76;53.51;96273.38;5063605;28;19925;-85
2023/03/16 09:29:46;;;;;;;;;;;;;;;6.90;52.14;96263.41;5069026;28;20011;-85
2023/03/16 09:32:14;;;;;;;;;;;;;;;7.02;49.62;96263.63;5067671;28;19931;-85
2023/03/16 09:34:41;;;;;;;;;;;;;;;7.05;49.87;96252.47;5060146;28;19931;-85
2023/03/16 09:37:08;;;;;;;;;;;;;;;7.20;50.41;96247.66;5084038;28;19924;-85
2023/03/16 09:39:35;;;;;;;;;;;;;;;7.41;50.75;96250.06;5068355;28;19938;-85
2023/03/16 09:42:08;;;;;;;;;;;;;;;7.70;50.75;96246.00;5072337;28;19939;-85
2023/03/16 09:44:41;;;;;;;;;;;;;;;8.03;51.17;96242.31;5060791;28;19975;-85
2023/03/16 09:47:10;;;;;;;;;;;;;;;8.32;49.08;96245.25;5061379;28;19924;-86
2023/03/16 09:49:40;;;;;;;;;;;;;;;8.65;49.05;96241.44;5069201;28;19931;-85
2023/03/16 09:52:13;;;;;;;;;;;;;;;8.98;49.51;96247.34;5060807;28;20075;-86
2023/03/16 09:54:44;;;;;;;;;;;;;;;9.21;46.79;96243.16;5060712;28;19979;-85
2023/03/16 09:57:17;;;;;;;;;;;;;;;9.39;44.84;96240.47;5071815;28;19932;-85
2023/03/16 09:59:44;;;;;;;;;;;;;;;9.45;42.57;96239.56;5084580;28;20015;-86
2023/03/16 10:02:26;;;;;;;;;;;;;;;9.60;43.93;96234.63;5068601;28;19932;-85
2023/03/16 10:04:57;;;;;;;;;;;;;;;9.62;43.18;96235.19;5066770;28;19925;-86
2023/03/16 10:07:30;;;;;;;;;;;;;;;9.48;43.99;96225.63;5066086;28;19924;-85
2023/03/16 10:09:57;;;;;;;;;;;;;;;9.60;43.04;96225.72;5066918;28;20023;-86
2023/03/16 10:12:29;;;;;;;;;;;;;;;9.67;41.78;96232.66;5060961;28;19935;-85
2023/03/16 10:14:59;;;;;;;;;;;;;;;9.78;41.52;96237.25;5070203;28;19929;-85
2023/03/16 10:17:28;;;;;;;;;;;;;;;9.79;41.60;96225.44;5068696;28;19928;-85
2023/03/16 10:19:57;;;;;;;;;;;;;;;9.78;42.05;96217.59;5068130;28;19928;-85
2023/03/16 10:22:26;;;;;;;;;;;;;;;9.84;42.90;96219.38;5078698;28;20132;-85
2023/03/16 10:25:00;;;;;;;;;;;;;;;10.07;43.22;96216.75;5080323;28;19924;-86
2023/03/16 10:27:29;;;;;;;;;;;;;;;10.22;42.98;96202.84;5068388;28;19935;-85
2023/03/16 10:29:56;;;;;;;;;;;;;;;10.47;43.36;96203.47;5066839;28;19924;-85
2023/03/16 10:32:27;;;;;;;;;;;;;;;10.58;43.32;96202.66;5069320;28;20027;-86
2023/03/16 10:34:55;;;;;;;;;;;;;;;10.83;43.87;96196.22;5087139;28;19956;-86
2023/03/16 10:37:21;;;;;;;;;;;;;;;10.97;42.79;96200.34;5070156;28;19931;-86
2023/03/16 10:39:48;;;;;;;;;;;;;;;11.11;45.31;96199.03;5066646;28;19940;-85
2023/03/16 10:42:16;;;;;;;;;;;;;;;11.21;47.47;96190.31;5065344;28;19931;-85
2023/03/16 10:44:45;;;;;;;;;;;;;;;11.31;45.98;96193.25;5067890;28;19924;-86
2023/03/16 10:47:21;;;;;;;;;;;;;;;11.24;46.14;96192.53;5070010;28;19933;-85
2023/03/16 10:49:50;;;;;;;;;;;;;;;11.25;46.34;96192.28;5061775;28;19924;-86
2023/03/16 10:52:19;;;;;;;;;;;;;;;11.34;46.05;96198.16;5063867;28;19925;-85
2023/03/16 10:54:51;;;;;;;;;;;;;;;11.55;45.54;96199.41;5067676;28;19990;-85
2023/03/16 10:57:24;;;;;;;;;;;;;;;11.80;45.97;96194.53;5063366;28;19953;-86
2023/03/16 10:59:53;;;;;;;;;;;;;;;11.92;44.93;96192.56;5065098;28;19929;-86
2023/03/16 11:02:22;;;;;;;;;;;;;;;12.11;43.34;96196.72;5068026;28;19925;-87
2023/03/16 11:04:49;;;;;;;;;;;;;;;12.06;43.50;96195.81;5060523;28;20019;-86
2023/03/16 11:07:17;;;;;;;;;;;;;;;11.92;43.08;96187.16;5083503;28;19924;-86
2023/03/16 11:09:46;;;;;;;;;;;;;;;12.03;43.65;96182.75;5064890;28;19925;-86
2023/03/16 11:12:14;;;;;;;;;;;;;;;12.00;42.79;96186.75;5084950;28;19928;-86
2023/03/16 11:14:43;;;;;;;;;;;;;;;12.27;41.60;96183.44;5060201;28;20019;-85
2023/03/16 11:17:13;;;;;;;;;;;;;;;12.25;41.45;96180.97;5067535;28;19929;-86
2023/03/16 11:19:45;;;;;;;;;;;;;;;12.28;40.02;96185.09;5069012;28;19925;-86
2023/03/16 11:22:15;;;;;;;;;;;;;;;12.30;40.77;96182.97;5062976;28;19933;-86
2023/03/16 11:24:46;;;;;;;;;;;;;;;12.27;41.57;96183.44;5067628;28;20028;-86
2023/03/16 11:27:18;;;;;;;;;;;;;;;12.46;40.66;96191.09;5071955;28;19925;-86
2023/03/16 11:29:50;;;;;;;;;;;;;;;12.75;41.06;96185.59;5069926;28;20046;-86
2023/03/16 11:32:20;;;;;;;;;;;;;;;12.98;40.82;96179.97;5068893;28;19931;-86
2023/03/16 11:34:48;;;;;;;;;;;;;;;12.84;40.44;96179.50;5063774;28;19925;-86
2023/03/16 11:37:20;;;;;;;;;;;;;;;12.74;39.54;96179.34;5067501;28;19971;-86
2023/03/16 11:39:55;;;;;;;;;;;;;;;12.96;39.26;96178.56;5069606;28;19924;-86
2023/03/16 11:42:30;;;;;;;;;;;;;;;13.05;39.35;96172.47;5068832;28;19932;-86
2023/03/16 11:45:01;;;;;;;;;;;;;;;13.11;39.36;96174.19;5085234;28;19931;-86
2023/03/16 11:47:36;;;;;;;;;;;;;;;13.29;38.64;96164.16;5069640;28;20154;-86
2023/03/16 11:50:06;;;;;;;;;;;;;;;13.34;38.14;96161.50;5067920;28;19925;-86
2023/03/16 11:52:42;;;;;;;;;;;;;;;13.33;38.21;96166.13;5061928;28;20059;-86
2023/03/16 11:55:20;;;;;;;;;;;;;;;13.25;37.09;96161.13;5065122;28;19999;-86
2023/03/16 11:57:53;;;;;;;;;;;;;;;13.04;39.42;96161.88;5065035;28;19941;-85
2023/03/16 12:00:27;;;;;;;;;;;;;;;13.06;39.68;96165.16;5068295;28;20026;-86
2023/03/16 12:03:01;;;;;;;;;;;;;;;13.22;37.41;96159.75;5069345;28;19925;-86
2023/03/16 12:05:41;;;;;;;;;;;;;;;13.53;37.74;96158.22;5067462;28;19982;-86
2023/03/16 12:08:18;;;;;;;;;;;;;;;13.28;37.38;96152.47;5066000;28;19928;-86
2023/03/16 12:10:48;;;;;;;;;;;;;;;13.74;37.48;96155.75;5061649;28;19925;-86
2023/03/16 12:13:29;;;;;;;;;;;;;;;13.87;36.92;96149.91;5065781;28;19929;-86
2023/03/16 12:16:00;;;;;;;;;;;;;;;13.78;37.32;96151.47;5061223;28;19979;-86
2023/03/16 12:18:34;;;;;;;;;;;;;;;13.81;37.04;96148.22;5072895;28;19931;-86
2023/03/16 12:21:02;;;;;;;;;;;;;;;13.79;36.62;96147.66;5065212;28;19931;-86
2023/03/16 12:23:33;;;;;;;;;;;;;;;13.84;36.96;96145.00;5069584;28;19988;-86
2023/03/16 12:26:00;;;;;;;;;;;;;;;13.94;36.85;96148.66;5068349;28;19929;-86
2023/03/16 12:28:28;;;;;;;;;;;;;;;14.00;35.76;96139.47;5069451;28;20018;-86
2023/03/16 12:31:04;;;;;;;;;;;;;;;14.20;36.83;96140.75;5071481;28;19931;-86
2023/03/16 12:33:39;;;;;;;;;;;;;;;13.98;36.35;96138.91;5072064;28;19932;-85
2023/03/16 12:36:19;;;;;;;;;;;;;;;14.14;36.54;96133.59;5067402;28;19929;-86
2023/03/16 12:38:49;;;;;;;;;;;;;;;14.17;36.94;96133.91;5068415;28;19959;-86
2023/03/16 12:41:22;;;;;;;;;;;;;;;14.09;37.32;96134.41;5056115;28;19929;-86
2023/03/16 12:43:56;;;;;;;;;;;;;;;14.13;37.73;96134.69;5068004;28;19928;-87
2023/03/16 12:46:27;;;;;;;;;;;;;;;14.08;39.11;96140.91;5073008;28;19947;-86
2023/03/16 12:48:56;;;;;;;;;;;;;;;14.06;39.14;96143.03;5055896;28;19925;-86
2023/03/16 12:51:32;;;;;;;;;;;;;;;14.01;39.40;96140.28;5063390;28;19947;-85
2023/03/16 12:53:59;;;;;;;;;;;;;;;14.11;37.77;96134.97;5068032;28;19939;-86
2023/03/16 12:56:28;;;;;;;;;;;;;;;14.22;38.29;96125.81;5068769;28;19935;-86
2023/03/16 12:58:57;;;;;;;;;;;;;;;14.39;39.08;96133.84;5069823;28;19924;-86
2023/03/16 13:01:27;;;;;;;;;;;;;;;14.47;37.59;96127.94;5057484;28;19933;-84
2023/03/16 13:04:00;;;;;;;;;;;;;;;14.44;37.21;96122.22;5061726;28;19935;-87
2023/03/16 13:06:32;;;;;;;;;;;;;;;14.48;37.38;96121.44;5069087;28;19935;-86